createdAt,value
2022-08-26T00:02:20.588Z,26.10
2022-08-26T00:08:32.943Z,26.20
2022-08-26T00:14:43.860Z,26.30
2022-08-26T00:20:57.919Z,26.30
2022-08-26T00:27:09.879Z,26.10
2022-08-26T00:33:20.664Z,26.00
2022-08-26T00:39:30.786Z,25.80
2022-08-26T00:45:42.600Z,25.70
2022-08-26T00:51:56.085Z,25.50
2022-08-26T00:58:10.045Z,25.50
2022-08-26T01:04:20.518Z,25.50
2022-08-26T01:10:32.870Z,25.40
2022-08-26T01:16:42.364Z,25.40
2022-08-26T01:23:01.440Z,25.30
2022-08-26T01:29:13.101Z,25.30
2022-08-26T01:35:23.917Z,25.20
2022-08-26T01:41:36.589Z,25.10
2022-08-26T01:47:57.084Z,25.10
2022-08-26T01:54:05.765Z,25.10
2022-08-26T02:00:19.768Z,25.00
2022-08-26T02:06:33.817Z,24.90
2022-08-26T02:12:48.969Z,24.90
2022-08-26T02:19:01.181Z,24.80
2022-08-26T02:25:19.564Z,24.80
2022-08-26T02:31:27.511Z,24.80
2022-08-26T02:37:37.651Z,24.70
2022-08-26T02:43:50.082Z,24.70
2022-08-26T02:50:04.730Z,24.70
2022-08-26T02:56:13.508Z,24.60
2022-08-26T03:02:23.931Z,24.60
2022-08-26T03:08:37.850Z,24.50
2022-08-26T03:14:47.359Z,24.70
2022-08-26T03:21:01.789Z,24.70
2022-08-26T03:27:12.090Z,24.60
2022-08-26T03:33:24.765Z,24.50
2022-08-26T03:39:35.156Z,24.70
2022-08-26T03:45:47.532Z,24.90
2022-08-26T03:51:58.068Z,24.90
2022-08-26T03:58:08.372Z,24.70
2022-08-26T04:04:24.530Z,24.60
2022-08-26T04:10:34.650Z,24.70
2022-08-26T04:16:46.926Z,24.90
2022-08-26T04:22:58.059Z,24.60
2022-08-26T04:29:10.895Z,24.50
2022-08-26T04:35:25.724Z,24.40
2022-08-26T04:41:31.577Z,24.40
2022-08-26T04:47:43.763Z,24.60
2022-08-26T04:53:52.390Z,24.70
2022-08-26T05:00:03.895Z,24.70
2022-08-26T05:06:16.521Z,24.70
2022-08-26T05:12:25.473Z,24.80
2022-08-26T05:18:36.407Z,24.80
2022-08-26T05:24:46.627Z,24.80
2022-08-26T05:30:57.238Z,24.80
2022-08-26T05:37:07.478Z,24.70
2022-08-26T05:43:20.238Z,24.70
2022-08-26T05:49:31.845Z,24.70
2022-08-26T05:55:46.064Z,24.70
2022-08-26T06:01:57.178Z,24.70
2022-08-26T06:08:15.513Z,24.80
2022-08-26T06:14:26.546Z,24.80
2022-08-26T06:20:39.044Z,24.70
2022-08-26T06:26:54.164Z,24.70
2022-08-26T06:33:05.325Z,24.70
2022-08-26T06:39:14.950Z,24.60
2022-08-26T06:45:22.651Z,24.60
2022-08-26T06:51:31.730Z,24.60
2022-08-26T06:57:43.377Z,24.50
2022-08-26T07:03:53.318Z,24.40
2022-08-26T07:10:03.495Z,24.40
2022-08-26T07:16:14.880Z,24.40
2022-08-26T07:22:23.878Z,24.40
2022-08-26T07:28:31.982Z,24.40
2022-08-26T07:34:43.478Z,24.50
2022-08-26T07:40:52.625Z,24.60
2022-08-26T07:47:03.997Z,24.70
2022-08-26T07:53:13.625Z,24.60
2022-08-26T07:59:27.501Z,24.50
2022-08-26T08:05:41.291Z,24.50
2022-08-26T08:11:54.041Z,24.50
2022-08-26T08:18:04.030Z,24.50
2022-08-26T08:24:13.072Z,24.50
2022-08-26T08:30:24.195Z,24.40
2022-08-26T08:36:36.472Z,24.40
2022-08-26T08:42:48.234Z,24.30
2022-08-26T08:49:00.968Z,24.30
2022-08-26T08:55:17.392Z,24.30
2022-08-26T09:01:35.260Z,24.30
2022-08-26T09:07:46.970Z,24.40
2022-08-26T09:14:00.319Z,24.40
2022-08-26T09:20:14.188Z,24.40
2022-08-26T09:26:27.241Z,24.60
2022-08-26T09:32:35.928Z,24.70
2022-08-26T09:38:45.520Z,24.60
2022-08-26T09:45:13.850Z,24.50
2022-08-26T09:51:45.895Z,24.50
2022-08-26T09:58:02.242Z,24.50
2022-08-26T10:04:13.957Z,24.60
2022-08-26T10:10:26.828Z,24.60
2022-08-26T10:16:39.115Z,24.50
2022-08-26T10:22:50.972Z,24.50
2022-08-26T10:29:05.008Z,24.40
2022-08-26T10:35:16.915Z,24.50
2022-08-26T10:41:25.851Z,24.50
2022-08-26T10:47:42.223Z,24.50
2022-08-26T10:53:58.237Z,24.60
2022-08-26T11:00:14.811Z,24.60
2022-08-26T11:06:32.344Z,24.60
2022-08-26T11:12:58.698Z,24.60
2022-08-26T11:19:11.726Z,24.60
2022-08-26T11:25:21.254Z,24.60
2022-08-26T11:31:57.041Z,24.50
2022-08-26T11:38:10.959Z,24.60
2022-08-26T11:44:25.959Z,24.60
2022-08-26T11:50:33.810Z,24.60
2022-08-26T11:56:45.123Z,24.60
2022-08-26T12:02:58.653Z,24.60
2022-08-26T12:09:13.434Z,24.60
2022-08-26T12:15:22.851Z,24.60
2022-08-26T12:21:34.830Z,24.70
2022-08-26T12:27:44.872Z,24.70
2022-08-26T12:33:55.986Z,24.70
2022-08-26T12:40:26.728Z,24.80
2022-08-26T12:46:40.342Z,24.80
2022-08-26T12:52:59.473Z,24.70
2022-08-26T12:59:11.251Z,24.70
2022-08-26T13:05:28.730Z,24.90
2022-08-26T13:11:42.390Z,25.10
2022-08-26T13:17:51.646Z,25.10
2022-08-26T13:24:04.018Z,25.10
2022-08-26T13:30:20.837Z,25.10
2022-08-26T13:36:32.103Z,25.30
2022-08-26T13:42:49.811Z,25.30
2022-08-26T13:48:57.314Z,25.30
2022-08-26T13:55:12.728Z,25.40
2022-08-26T14:01:26.188Z,25.50
2022-08-26T14:07:40.876Z,25.70
2022-08-26T14:20:13.622Z,25.80
2022-08-26T14:26:28.526Z,25.90
2022-08-26T14:32:36.432Z,25.90
2022-08-26T14:38:48.104Z,26.00
2022-08-26T14:44:58.745Z,26.00
2022-08-26T14:51:09.859Z,26.00
2022-08-26T14:57:18.327Z,26.00
2022-08-26T15:03:28.563Z,26.00
2022-08-26T15:09:39.382Z,26.00
2022-08-26T15:15:50.352Z,26.00
2022-08-26T15:21:59.963Z,26.00
2022-08-26T15:28:14.758Z,26.00
2022-08-26T15:34:24.864Z,26.00
2022-08-26T15:40:33.549Z,26.00
2022-08-26T15:46:43.605Z,26.10
2022-08-26T15:52:58.065Z,26.10
2022-08-26T15:59:07.738Z,26.10
2022-08-26T16:05:18.253Z,26.20
2022-08-26T16:11:26.345Z,26.30
2022-08-26T16:17:34.666Z,26.40
2022-08-26T16:23:52.227Z,26.40
2022-08-26T16:30:00.498Z,26.40
2022-08-26T16:36:16.880Z,26.50
2022-08-26T16:42:25.269Z,26.60
2022-08-26T16:48:38.204Z,26.60
2022-08-26T16:54:52.096Z,26.70
2022-08-26T17:01:02.206Z,26.70
2022-08-26T17:07:12.996Z,26.80
2022-08-26T17:13:31.646Z,26.80
2022-08-26T17:19:46.979Z,26.90
2022-08-26T17:25:52.187Z,27.10
2022-08-26T17:32:00.030Z,27.10
2022-08-26T17:38:12.397Z,27.10
2022-08-26T17:44:23.075Z,27.10
2022-08-26T17:50:34.654Z,27.20
2022-08-26T17:56:42.131Z,27.30
2022-08-26T18:02:52.150Z,27.40
2022-08-26T18:08:59.517Z,27.50
2022-08-26T18:15:13.561Z,27.50
2022-08-26T18:21:24.654Z,27.50
2022-08-26T18:27:35.190Z,27.50
2022-08-26T18:33:43.821Z,27.10
2022-08-26T18:39:51.154Z,26.80
2022-08-26T18:46:07.479Z,26.70
2022-08-26T18:52:15.592Z,26.50
2022-08-26T18:58:23.334Z,26.40
2022-08-26T19:04:34.230Z,26.30
2022-08-26T19:10:42.421Z,26.20
2022-08-26T19:16:54.719Z,26.10
2022-08-26T19:23:10.563Z,26.10
2022-08-26T19:35:26.512Z,26.10
2022-08-26T19:41:38.018Z,26.00
2022-08-26T19:47:48.057Z,26.10
2022-08-26T19:53:57.406Z,26.00
2022-08-26T20:00:09.295Z,25.90
2022-08-26T20:06:19.143Z,25.90
2022-08-26T20:12:30.955Z,25.80
2022-08-26T20:18:55.180Z,25.80
2022-08-26T20:25:04.186Z,25.70
2022-08-26T20:31:20.571Z,25.70
2022-08-26T20:37:26.018Z,25.70
2022-08-26T20:43:35.823Z,25.70
2022-08-26T20:49:44.381Z,25.60
2022-08-26T20:55:54.440Z,25.50
2022-08-26T21:02:05.771Z,25.50
2022-08-26T21:08:14.123Z,25.50
2022-08-26T21:14:27.065Z,25.50
2022-08-26T21:20:37.446Z,25.50
2022-08-26T21:26:44.703Z,25.50
2022-08-26T21:32:52.080Z,25.40
2022-08-26T21:39:01.889Z,25.40
2022-08-26T21:45:15.754Z,25.50
2022-08-26T21:51:25.118Z,25.90
2022-08-26T21:57:35.412Z,26.20
2022-08-26T22:03:46.699Z,26.30
2022-08-26T22:09:55.434Z,26.50
2022-08-26T22:16:02.984Z,26.60
2022-08-26T22:22:12.099Z,26.70
2022-08-26T22:28:20.029Z,26.70
2022-08-26T22:34:29.732Z,26.80
2022-08-26T22:40:37.691Z,26.90
2022-08-26T22:46:45.926Z,27.00
2022-08-26T22:52:55.753Z,27.00
2022-08-26T22:59:05.295Z,26.90
2022-08-26T23:05:17.065Z,27.00
2022-08-26T23:11:25.969Z,27.00
2022-08-26T23:17:33.494Z,27.10
2022-08-26T23:23:42.167Z,27.10
2022-08-26T23:29:52.644Z,27.10
2022-08-26T23:36:05.902Z,27.20
2022-08-26T23:42:13.297Z,27.40
2022-08-26T23:48:26.344Z,27.50
2022-08-26T23:54:35.337Z,27.40
